createdAt,value
2022-12-09T00:01:14.877Z,8.10
2022-12-09T00:03:42.766Z,7.57
2022-12-09T00:06:21.492Z,8.77
2022-12-09T00:08:49.167Z,8.47
2022-12-09T00:11:16.580Z,7.93
2022-12-09T00:13:43.608Z,7.73
2022-12-09T00:16:13.341Z,7.03
2022-12-09T00:18:40.755Z,9.33
2022-12-09T00:21:24.279Z,8.80
2022-12-09T00:23:52.660Z,9.80
2022-12-09T00:26:21.145Z,8.50
2022-12-09T00:28:49.578Z,8.00
2022-12-09T00:31:19.417Z,8.17
2022-12-09T00:33:46.696Z,7.90
2022-12-09T00:36:17.526Z,9.40
2022-12-09T00:38:44.746Z,8.43
2022-12-09T00:41:13.605Z,9.23
2022-12-09T00:43:41.746Z,8.93
2022-12-09T00:46:08.846Z,7.77
2022-12-09T00:48:37.298Z,7.40
2022-12-09T00:51:06.709Z,8.10
2022-12-09T00:53:33.853Z,7.50
2022-12-09T00:56:01.264Z,7.87
2022-12-09T00:58:28.619Z,7.07
2022-12-09T01:00:55.883Z,9.20
2022-12-09T01:03:23.084Z,8.53
2022-12-09T01:05:50.524Z,9.07
2022-12-09T01:08:17.581Z,9.23
2022-12-09T01:10:45.906Z,10.47
2022-12-09T01:13:15.011Z,9.70
2022-12-09T01:15:42.174Z,10.37
2022-12-09T01:18:10.182Z,10.90
2022-12-09T01:20:36.979Z,10.10
2022-12-09T01:23:04.039Z,9.53
2022-12-09T01:25:30.907Z,8.50
2022-12-09T01:27:58.596Z,9.90
2022-12-09T01:30:25.898Z,9.97
2022-12-09T01:32:53.186Z,10.33
2022-12-09T01:35:20.673Z,10.13
2022-12-09T01:37:47.575Z,9.17
2022-12-09T01:40:17.921Z,8.60
2022-12-09T01:42:45.521Z,10.33
2022-12-09T01:45:30.541Z,9.50
2022-12-09T01:48:11.176Z,9.57
2022-12-09T01:50:55.515Z,10.37
2022-12-09T01:53:27.397Z,9.73
2022-12-09T01:55:57.590Z,10.67
2022-12-09T01:58:25.215Z,10.10
2022-12-09T02:00:52.667Z,9.50
2022-12-09T02:03:21.589Z,11.47
2022-12-09T02:05:49.199Z,9.50
2022-12-09T02:08:18.714Z,10.27
2022-12-09T02:11:12.575Z,7.87
2022-12-09T02:13:49.081Z,10.37
2022-12-09T02:16:21.970Z,9.40
2022-12-09T02:19:06.978Z,9.53
2022-12-09T02:21:55.183Z,10.10
2022-12-09T02:24:25.282Z,10.23
2022-12-09T02:27:14.637Z,10.07
2022-12-09T02:30:15.730Z,10.37
2022-12-09T02:33:07.111Z,9.93
2022-12-09T02:36:09.390Z,10.43
2022-12-09T02:38:40.989Z,11.60
2022-12-09T02:41:28.713Z,11.33
2022-12-09T02:44:01.548Z,10.80
2022-12-09T02:46:33.649Z,11.50
2022-12-09T02:49:01.084Z,11.17
2022-12-09T02:51:32.211Z,12.47
2022-12-09T02:54:18.255Z,11.87
2022-12-09T02:56:57.847Z,12.97
2022-12-09T02:59:27.807Z,11.37
2022-12-09T03:02:01.808Z,11.03
2022-12-09T03:04:31.328Z,10.50
2022-12-09T03:07:18.930Z,9.13
2022-12-09T03:09:51.046Z,11.13
2022-12-09T03:12:20.200Z,10.60
2022-12-09T03:14:51.502Z,10.33
2022-12-09T03:17:28.816Z,10.93
2022-12-09T03:20:01.018Z,9.73
2022-12-09T03:22:31.389Z,9.93
2022-12-09T03:25:04.988Z,9.37
2022-12-09T03:27:46.578Z,8.53
2022-12-09T03:30:15.056Z,9.13
2022-12-09T03:32:44.627Z,9.37
2022-12-09T03:35:16.548Z,8.97
2022-12-09T03:37:44.896Z,8.77
2022-12-09T03:40:17.249Z,8.97
2022-12-09T03:42:51.335Z,8.67
2022-12-09T03:45:19.739Z,8.63
2022-12-09T03:47:47.525Z,9.17
2022-12-09T03:50:15.046Z,9.07
2022-12-09T03:52:57.202Z,9.77
2022-12-09T03:55:40.187Z,9.47
2022-12-09T03:58:08.499Z,8.93
2022-12-09T04:00:38.089Z,8.40
2022-12-09T04:03:06.909Z,10.30
2022-12-09T04:05:33.884Z,10.60
2022-12-09T04:08:01.369Z,9.93
2022-12-09T04:10:28.324Z,11.67
2022-12-09T04:12:55.096Z,10.73
2022-12-09T04:15:22.135Z,9.77
2022-12-09T04:17:49.203Z,10.23
2022-12-09T04:20:16.288Z,10.53
2022-12-09T04:22:43.336Z,12.27
2022-12-09T04:25:10.556Z,11.03
2022-12-09T04:27:37.617Z,11.67
2022-12-09T04:30:05.645Z,10.60
2022-12-09T04:32:33.785Z,11.57
2022-12-09T04:35:00.847Z,9.87
2022-12-09T04:37:27.730Z,9.90
2022-12-09T04:39:54.768Z,11.53
2022-12-09T04:42:21.855Z,10.90
2022-12-09T04:44:49.024Z,10.60
2022-12-09T04:47:16.088Z,11.47
2022-12-09T04:49:43.082Z,10.63
2022-12-09T04:52:09.872Z,15.63
2022-12-09T04:54:38.598Z,10.20
2022-12-09T04:57:05.429Z,11.87
2022-12-09T04:59:32.549Z,12.30
2022-12-09T05:01:59.526Z,11.93
2022-12-09T05:04:27.180Z,13.30
2022-12-09T05:06:54.351Z,14.03
2022-12-09T05:09:21.285Z,13.97
2022-12-09T05:11:48.643Z,11.70
2022-12-09T05:14:15.872Z,12.17
2022-12-09T05:16:42.959Z,14.97
2022-12-09T05:19:11.207Z,12.60
2022-12-09T05:21:38.499Z,11.90
2022-12-09T05:24:06.221Z,14.13
2022-12-09T05:26:33.398Z,15.37
2022-12-09T05:29:00.747Z,12.00
2022-12-09T05:31:27.799Z,13.20
2022-12-09T05:33:55.551Z,12.17
2022-12-09T05:36:25.768Z,15.53
2022-12-09T05:38:54.196Z,14.03
2022-12-09T05:41:22.934Z,13.37
2022-12-09T05:43:50.589Z,11.57
2022-12-09T05:46:18.170Z,12.33
2022-12-09T05:48:45.311Z,12.67
2022-12-09T05:51:32.953Z,11.53
2022-12-09T05:54:05.480Z,12.80
2022-12-09T05:56:33.508Z,12.67
2022-12-09T05:59:00.813Z,12.60
2022-12-09T06:01:28.089Z,13.90
2022-12-09T06:03:56.361Z,13.87
2022-12-09T06:06:27.690Z,14.33
2022-12-09T06:08:57.189Z,13.83
2022-12-09T06:11:24.855Z,15.30
2022-12-09T06:13:52.518Z,15.90
2022-12-09T06:16:21.605Z,15.77
2022-12-09T06:18:49.412Z,16.57
2022-12-09T06:21:18.428Z,17.23
2022-12-09T06:23:45.637Z,16.37
2022-12-09T06:26:30.831Z,16.93
2022-12-09T06:28:58.464Z,17.43
2022-12-09T06:31:26.011Z,16.00
2022-12-09T06:33:56.001Z,20.40
2022-12-09T06:36:24.999Z,18.17
2022-12-09T06:38:52.169Z,18.13
2022-12-09T06:41:19.447Z,17.80
2022-12-09T06:43:46.781Z,17.40
2022-12-09T06:46:19.560Z,18.60
2022-12-09T06:48:47.372Z,18.60
2022-12-09T06:51:15.806Z,21.47
2022-12-09T06:53:42.985Z,21.93
2022-12-09T06:56:13.210Z,26.93
2022-12-09T06:58:45.138Z,26.47
2022-12-09T07:01:18.412Z,23.87
2022-12-09T07:03:50.777Z,24.80
2022-12-09T07:06:21.097Z,22.50
2022-12-09T07:08:48.596Z,26.27
2022-12-09T07:11:15.619Z,25.43
2022-12-09T07:13:43.077Z,26.10
2022-12-09T07:16:10.299Z,22.40
2022-12-09T07:18:37.420Z,22.47
2022-12-09T07:21:12.804Z,25.83
2022-12-09T07:23:40.322Z,25.83
2022-12-09T07:26:07.546Z,29.13
2022-12-09T07:28:36.456Z,28.00
2022-12-09T07:31:03.852Z,28.07
2022-12-09T07:33:31.169Z,25.10
2022-12-09T07:35:59.425Z,23.90
2022-12-09T07:38:27.040Z,25.23
2022-12-09T07:40:54.207Z,26.33
2022-12-09T07:43:21.262Z,23.73
2022-12-09T07:45:49.439Z,24.60
2022-12-09T07:48:16.971Z,22.90
2022-12-09T07:50:44.150Z,23.67
2022-12-09T07:53:11.164Z,24.60
2022-12-09T07:55:38.108Z,21.83
2022-12-09T07:58:05.103Z,23.30
2022-12-09T08:00:32.151Z,21.60
2022-12-09T08:02:59.340Z,24.00
2022-12-09T08:05:27.549Z,24.63
2022-12-09T08:07:54.870Z,22.63
2022-12-09T08:10:22.144Z,23.23
2022-12-09T08:12:49.383Z,22.07
2022-12-09T08:15:19.499Z,22.63
2022-12-09T08:17:46.562Z,23.37
2022-12-09T08:20:14.164Z,22.37
2022-12-09T08:22:42.023Z,26.77
2022-12-09T08:25:09.945Z,22.17
2022-12-09T08:27:37.370Z,22.90
2022-12-09T08:30:05.679Z,22.80
2022-12-09T08:32:33.449Z,22.60
2022-12-09T08:35:00.917Z,22.60
2022-12-09T08:37:27.955Z,22.97
2022-12-09T08:39:55.219Z,22.67
2022-12-09T08:42:22.469Z,20.87
2022-12-09T08:44:52.519Z,22.27
2022-12-09T08:47:21.735Z,21.97
2022-12-09T08:49:49.126Z,26.23
2022-12-09T08:52:16.328Z,24.80
2022-12-09T08:54:43.222Z,23.60
2022-12-09T08:57:10.098Z,24.43
2022-12-09T08:59:43.488Z,25.00
2022-12-09T09:02:12.615Z,28.70
2022-12-09T09:04:40.123Z,25.60
2022-12-09T09:07:07.390Z,23.53
2022-12-09T09:09:34.785Z,22.77
2022-12-09T09:12:01.964Z,23.33
2022-12-09T09:14:29.276Z,24.50
2022-12-09T09:16:56.270Z,26.33
2022-12-09T09:19:28.070Z,26.87
2022-12-09T09:21:56.153Z,27.77
2022-12-09T09:24:25.401Z,25.70
2022-12-09T09:26:53.957Z,27.50
2022-12-09T09:29:23.579Z,26.30
2022-12-09T09:31:54.530Z,29.33
2022-12-09T09:34:22.332Z,30.13
2022-12-09T09:36:49.816Z,25.73
2022-12-09T09:39:17.502Z,28.03
2022-12-09T09:41:53.596Z,28.50
2022-12-09T09:44:26.633Z,29.23
2022-12-09T09:46:55.984Z,28.53
2022-12-09T09:49:38.563Z,31.40
2022-12-09T09:52:12.204Z,29.23
2022-12-09T09:54:39.384Z,31.83
2022-12-09T09:57:24.152Z,30.67
2022-12-09T10:00:08.385Z,30.87
2022-12-09T10:03:02.550Z,30.80
2022-12-09T10:05:35.869Z,31.13
2022-12-09T10:08:40.710Z,31.93
2022-12-09T10:11:42.232Z,28.60
2022-12-09T10:14:28.487Z,30.13
2022-12-09T10:17:18.612Z,32.83
2022-12-09T10:19:50.386Z,31.73
2022-12-09T10:22:23.303Z,30.77
2022-12-09T10:24:56.321Z,31.83
2022-12-09T10:27:29.238Z,31.73
2022-12-09T10:30:00.852Z,34.53
2022-12-09T10:32:34.583Z,30.77
2022-12-09T10:35:12.354Z,31.67
2022-12-09T10:37:39.575Z,31.60
2022-12-09T10:40:16.765Z,30.47
2022-12-09T10:43:16.769Z,30.03
2022-12-09T10:48:47.546Z,34.83
2022-12-09T10:51:22.919Z,33.03
2022-12-09T10:53:54.996Z,31.90
2022-12-09T10:56:27.439Z,31.10
2022-12-09T10:59:19.483Z,31.17
2022-12-09T11:01:58.662Z,31.23
2022-12-09T11:04:32.009Z,32.53
2022-12-09T11:07:20.152Z,38.43
2022-12-09T11:09:56.804Z,33.97
2022-12-09T11:12:29.163Z,30.80
2022-12-09T11:15:02.135Z,34.27
2022-12-09T11:17:36.029Z,35.07
2022-12-09T11:20:06.578Z,36.27
2022-12-09T11:22:41.095Z,34.17
2022-12-09T11:25:28.786Z,35.07
2022-12-09T11:28:17.591Z,35.33
2022-12-09T11:33:55.506Z,38.47
2022-12-09T11:36:29.857Z,36.13
2022-12-09T11:39:28.414Z,37.90
2022-12-09T11:42:18.494Z,40.23
2022-12-09T11:45:06.886Z,39.47
2022-12-09T11:48:13.872Z,37.27
2022-12-09T11:50:33.390Z,43.53
2022-12-09T11:53:11.365Z,41.37
2022-12-09T11:55:43.166Z,40.80
2022-12-09T11:58:17.534Z,43.20
2022-12-09T12:00:51.657Z,40.53
2022-12-09T12:03:18.467Z,38.67
2022-12-09T12:05:52.113Z,42.57
2022-12-09T12:08:25.059Z,44.73
2022-12-09T12:10:56.460Z,38.17
2022-12-09T12:13:34.694Z,42.80
2022-12-09T12:16:32.475Z,46.50
2022-12-09T12:19:19.963Z,39.90
2022-12-09T12:22:14.353Z,42.23
2022-12-09T12:25:00.303Z,45.60
2022-12-09T12:27:45.955Z,41.27
2022-12-09T12:30:16.501Z,45.67
2022-12-09T12:33:59.720Z,41.93
2022-12-09T12:36:23.046Z,44.77
2022-12-09T12:39:10.987Z,44.97
2022-12-09T12:41:56.028Z,42.33
2022-12-09T12:44:50.369Z,41.07
2022-12-09T12:47:33.156Z,43.50
2022-12-09T12:50:26.274Z,44.53
2022-12-09T12:53:21.596Z,44.30
2022-12-09T12:56:10.722Z,45.07
2022-12-09T12:58:52.544Z,46.67
2022-12-09T13:01:31.629Z,47.47
2022-12-09T13:04:22.610Z,47.67
2022-12-09T13:07:05.567Z,51.07
2022-12-09T13:10:09.048Z,48.43
2022-12-09T13:13:01.540Z,47.87
2022-12-09T13:15:32.362Z,47.73
2022-12-09T13:18:36.001Z,46.40
2022-12-09T13:21:05.158Z,43.43
2022-12-09T13:24:15.911Z,44.77
2022-12-09T13:27:01.148Z,42.90
2022-12-09T13:29:39.861Z,47.03
2022-12-09T13:32:42.012Z,43.70
2022-12-09T13:35:22.576Z,44.97
2022-12-09T13:37:52.145Z,45.23
2022-12-09T13:40:24.716Z,44.50
2022-12-09T13:43:16.619Z,42.50
2022-12-09T13:45:43.427Z,43.80
2022-12-09T13:48:17.018Z,42.53
2022-12-09T13:50:57.368Z,39.77
2022-12-09T13:54:04.193Z,43.90
2022-12-09T13:56:36.612Z,45.27
2022-12-09T13:59:25.062Z,53.20
2022-12-09T14:01:59.626Z,50.27
2022-12-09T14:04:36.057Z,52.63
2022-12-09T14:07:18.818Z,50.60
2022-12-09T14:09:50.589Z,54.20
2022-12-09T14:12:26.229Z,47.63
2022-12-09T14:14:55.238Z,45.63
2022-12-09T14:17:31.013Z,45.13
2022-12-09T14:20:20.373Z,40.77
2022-12-09T14:23:15.416Z,40.50
2022-12-09T14:25:57.628Z,46.37
2022-12-09T14:28:36.506Z,41.80
2022-12-09T14:31:08.716Z,43.10
2022-12-09T14:33:37.591Z,44.00
2022-12-09T14:36:24.067Z,42.97
2022-12-09T14:42:02.673Z,39.93
2022-12-09T14:44:55.251Z,36.90
2022-12-09T14:47:29.775Z,33.03
2022-12-09T14:50:07.076Z,36.00
2022-12-09T14:52:34.472Z,37.67
2022-12-09T14:55:14.202Z,35.93
2022-12-09T14:57:45.740Z,34.27
2022-12-09T15:00:45.096Z,32.70
2022-12-09T15:03:45.488Z,32.50
2022-12-09T15:06:18.210Z,35.23
2022-12-09T15:08:45.171Z,33.27
2022-12-09T15:11:18.435Z,33.83
2022-12-09T15:13:48.061Z,32.60
2022-12-09T15:16:24.931Z,31.40
2022-12-09T15:18:53.354Z,32.57
2022-12-09T15:21:28.628Z,30.43
2022-12-09T15:23:56.320Z,29.97
2022-12-09T15:26:29.425Z,28.87
2022-12-09T15:28:57.512Z,31.43
2022-12-09T15:31:27.067Z,30.80
2022-12-09T15:34:00.188Z,31.03
2022-12-09T15:36:35.300Z,29.40
2022-12-09T15:39:08.040Z,28.80
2022-12-09T15:42:07.097Z,30.07
2022-12-09T15:44:49.385Z,33.53
2022-12-09T15:47:19.254Z,29.73
2022-12-09T15:49:55.094Z,30.03
2022-12-09T15:52:25.424Z,28.57
2022-12-09T15:54:53.026Z,29.20
2022-12-09T15:57:22.608Z,31.80
2022-12-09T15:59:57.158Z,30.07
2022-12-09T16:02:30.440Z,34.53
2022-12-09T16:05:04.176Z,31.53
2022-12-09T16:07:33.786Z,35.00
2022-12-09T16:10:01.554Z,28.17
2022-12-09T16:12:30.282Z,33.43
2022-12-09T16:14:57.090Z,31.43
2022-12-09T16:17:30.226Z,32.63
2022-12-09T16:19:57.305Z,29.97
2022-12-09T16:22:29.960Z,28.73
2022-12-09T16:25:14.710Z,34.40
2022-12-09T16:27:48.394Z,38.93
2022-12-09T16:30:23.898Z,32.50
2022-12-09T16:32:55.926Z,30.40
2022-12-09T16:35:26.380Z,28.33
2022-12-09T16:37:56.506Z,30.87
2022-12-09T16:40:26.512Z,26.00
2022-12-09T16:43:15.352Z,28.33
2022-12-09T16:45:46.526Z,28.20
2022-12-09T16:48:13.862Z,32.40
2022-12-09T16:50:49.427Z,29.80
2022-12-09T16:53:22.172Z,32.37
2022-12-09T16:55:51.800Z,39.00
2022-12-09T16:58:19.303Z,35.57
2022-12-09T17:00:46.861Z,31.07
2022-12-09T17:03:33.671Z,29.67
2022-12-09T17:06:01.380Z,28.57
2022-12-09T17:08:28.250Z,26.90
2022-12-09T17:10:55.082Z,27.97
2022-12-09T17:13:21.941Z,27.57
2022-12-09T17:15:48.860Z,28.53
2022-12-09T17:18:15.736Z,26.87
2022-12-09T17:20:42.599Z,25.13
2022-12-09T17:23:09.563Z,23.53
2022-12-09T17:25:36.391Z,26.17
2022-12-09T17:28:05.857Z,27.10
2022-12-09T17:30:37.817Z,25.80
2022-12-09T17:33:04.613Z,24.90
2022-12-09T17:35:33.852Z,26.20
2022-12-09T17:38:02.283Z,24.20
2022-12-09T17:40:29.171Z,26.27
2022-12-09T17:42:55.981Z,25.70
2022-12-09T17:45:22.814Z,26.37
2022-12-09T17:47:50.117Z,28.73
2022-12-09T17:50:16.948Z,24.00
2022-12-09T17:52:43.790Z,23.47
2022-12-09T17:55:10.741Z,21.93
2022-12-09T17:57:37.958Z,22.70
2022-12-09T18:00:06.628Z,23.07
2022-12-09T18:02:38.983Z,26.07
2022-12-09T18:05:06.235Z,23.00
2022-12-09T18:07:33.179Z,21.67
2022-12-09T18:10:00.103Z,21.47
2022-12-09T18:12:27.025Z,22.87
2022-12-09T18:14:53.848Z,21.33
2022-12-09T18:17:20.600Z,21.87
2022-12-09T18:19:47.477Z,20.60
2022-12-09T18:22:14.484Z,22.40
2022-12-09T18:24:41.388Z,25.30
2022-12-09T18:27:08.214Z,20.80
2022-12-09T18:29:35.087Z,19.23
2022-12-09T18:32:02.306Z,21.03
2022-12-09T18:34:29.490Z,21.23
2022-12-09T18:36:56.289Z,19.23
2022-12-09T18:39:23.088Z,20.07
2022-12-09T18:41:49.930Z,19.70
2022-12-09T18:44:16.773Z,19.97
2022-12-09T18:46:46.450Z,19.60
2022-12-09T18:49:20.095Z,23.60
2022-12-09T18:51:48.214Z,25.27
2022-12-09T18:54:18.369Z,27.83
2022-12-09T18:56:45.453Z,28.73
2022-12-09T18:59:12.364Z,28.30
2022-12-09T19:01:41.808Z,25.93
2022-12-09T19:04:29.564Z,25.87
2022-12-09T19:06:58.804Z,27.30
2022-12-09T19:09:34.644Z,23.53
2022-12-09T19:12:23.090Z,24.00
2022-12-09T19:14:50.084Z,21.80
2022-12-09T19:17:18.750Z,22.33
2022-12-09T19:19:47.397Z,21.63
2022-12-09T19:22:14.769Z,20.73
2022-12-09T19:24:43.424Z,21.00
2022-12-09T19:27:10.458Z,22.20
2022-12-09T19:29:37.496Z,21.37
2022-12-09T19:32:10.376Z,20.43
2022-12-09T19:34:50.756Z,20.40
2022-12-09T19:37:17.813Z,22.33
2022-12-09T19:39:46.578Z,21.37
2022-12-09T19:42:13.454Z,22.97
2022-12-09T19:47:27.439Z,24.07
2022-12-09T19:49:54.257Z,19.67
2022-12-09T19:52:21.034Z,19.77
2022-12-09T19:54:47.849Z,21.00
2022-12-09T19:57:14.898Z,20.90
2022-12-09T19:59:41.695Z,20.27
2022-12-09T20:02:12.016Z,21.17
2022-12-09T20:04:48.788Z,20.50
2022-12-09T20:07:16.874Z,19.97
2022-12-09T20:09:43.744Z,26.90
2022-12-09T20:12:10.680Z,25.90
2022-12-09T20:14:39.169Z,27.23
2022-12-09T20:17:06.025Z,54.87
2022-12-09T20:19:32.882Z,66.07
2022-12-09T20:21:59.718Z,95.10
2022-12-09T20:24:26.861Z,114.77
2022-12-09T20:26:55.063Z,130.00
2022-12-09T20:29:21.901Z,122.80
2022-12-09T20:31:48.692Z,99.40
2022-12-09T20:34:16.537Z,92.90
2022-12-09T20:36:44.809Z,97.60
2022-12-09T20:39:17.923Z,86.30
2022-12-09T20:41:45.706Z,73.63
2022-12-09T20:44:14.155Z,59.53
2022-12-09T20:46:44.725Z,50.87
2022-12-09T20:49:11.558Z,47.03
2022-12-09T20:51:40.394Z,37.90
2022-12-09T20:54:08.405Z,39.67
2022-12-09T20:56:35.671Z,37.47
2022-12-09T20:59:03.073Z,38.87
2022-12-09T21:01:32.835Z,36.97
2022-12-09T21:04:01.457Z,34.87
2022-12-09T21:06:31.016Z,34.27
2022-12-09T21:09:12.359Z,29.97
2022-12-09T21:11:39.585Z,31.13
2022-12-09T21:14:07.647Z,27.23
2022-12-09T21:16:38.970Z,26.20
2022-12-09T21:19:10.005Z,27.27
2022-12-09T21:21:40.396Z,28.43
2022-12-09T21:24:08.085Z,27.60
2022-12-09T21:26:34.905Z,26.53
2022-12-09T21:29:02.234Z,26.60
2022-12-09T21:31:32.205Z,26.20
2022-12-09T21:34:01.882Z,28.77
2022-12-09T21:36:34.616Z,25.37
2022-12-09T21:39:02.241Z,24.43
2022-12-09T21:41:31.453Z,26.00
2022-12-09T21:43:58.606Z,24.60
2022-12-09T21:46:28.780Z,23.20
2022-12-09T21:49:01.775Z,25.03
2022-12-09T21:51:31.477Z,23.70
2022-12-09T21:53:58.272Z,23.63
2022-12-09T21:56:27.049Z,23.73
2022-12-09T21:58:56.357Z,24.70
2022-12-09T22:01:26.138Z,24.23
2022-12-09T22:03:54.317Z,24.27
2022-12-09T22:06:21.801Z,23.60
2022-12-09T22:08:48.765Z,24.43
2022-12-09T22:11:19.481Z,24.13
2022-12-09T22:13:46.506Z,21.80
2022-12-09T22:16:19.490Z,21.07
2022-12-09T22:18:46.350Z,21.70
2022-12-09T22:21:24.836Z,21.90
2022-12-09T22:23:54.291Z,21.93
2022-12-09T22:26:21.888Z,23.70
2022-12-09T22:28:48.807Z,23.03
2022-12-09T22:31:21.516Z,25.77
2022-12-09T22:33:49.884Z,24.93
2022-12-09T22:36:17.178Z,21.27
2022-12-09T22:38:44.472Z,22.63
2022-12-09T22:41:17.716Z,22.23
2022-12-09T22:43:44.836Z,24.90
2022-12-09T22:46:33.860Z,27.07
2022-12-09T22:49:04.666Z,26.73
2022-12-09T22:51:34.126Z,28.03
2022-12-09T22:54:04.247Z,26.70
2022-12-09T22:56:31.342Z,26.87
2022-12-09T22:58:59.665Z,25.93
2022-12-09T23:01:32.906Z,27.47
2022-12-09T23:04:01.022Z,25.40
2022-12-09T23:06:28.954Z,25.37
2022-12-09T23:08:56.045Z,28.50
2022-12-09T23:11:25.199Z,28.77
2022-12-09T23:13:52.925Z,26.43
2022-12-09T23:16:23.424Z,28.47
2022-12-09T23:18:51.276Z,26.57
2022-12-09T23:21:28.170Z,25.20
2022-12-09T23:23:58.421Z,25.27
2022-12-09T23:26:27.316Z,27.80
2022-12-09T23:28:57.899Z,28.73
2022-12-09T23:31:30.218Z,27.93
2022-12-09T23:33:57.560Z,26.37
2022-12-09T23:36:31.322Z,27.70
2022-12-09T23:38:58.744Z,27.80
2022-12-09T23:41:26.142Z,27.57
2022-12-09T23:43:53.710Z,28.20
2022-12-09T23:46:22.612Z,29.97
2022-12-09T23:48:50.527Z,26.30
2022-12-09T23:51:20.411Z,27.90
2022-12-09T23:53:49.261Z,28.27
2022-12-09T23:56:19.630Z,27.93
2022-12-09T23:58:47.392Z,27.23
